This is the latest recevied weather packets stored in our database for station/object OM8AGG-10. If no packets are shown the sender has not sent any weather packets the latest 10 day(s).
| Time | Temp. | Humidity | Pressure | Rain* | Wind** | Luminosity | Snow |
|---|---|---|---|---|---|---|---|
| 1777921492 | 12.78° C | 50% | 1017.4 hPa | - | - | - | - |
| 1777920592 | 12.78° C | 50% | 1017.4 hPa | - | - | - | - |
| 1777919692 | 13.33° C | 50% | 1017.3 hPa | - | - | - | - |
| 1777918792 | 15° C | 44% | 1017.1 hPa | - | - | - | - |
| 1777917892 | 16.11° C | 43% | 1016.9 hPa | - | - | - | - |
| 1777916992 | 17.22° C | 43% | 1016.9 hPa | - | - | - | - |
| 1777916092 | 19.44° C | 36% | 1016.9 hPa | - | - | - | - |
| 1777915192 | 21.11° C | 26% | 1016.7 hPa | - | - | - | - |
| 1777914292 | 21.67° C | 26% | 1016.6 hPa | - | - | - | - |
| 1777913392 | 23.33° C | 23% | 1016.5 hPa | - | - | - | - |
| 1777912492 | 25.56° C | 21% | 1016.6 hPa | - | - | - | - |
| 1777910691 | 26.67° C | 21% | 1016.6 hPa | - | - | - | - |
| 1777908891 | 27.78° C | 21% | 1016.9 hPa | - | - | - | - |
| 1777907991 | 28.33° C | 19% | 1017 hPa | - | - | - | - |
| 1777907091 | 27.78° C | 19% | 1017.1 hPa | - | - | - | - |
| 1777906191 | 28.89° C | 18% | 1017.2 hPa | - | - | - | - |
| 1777905291 | 27.22° C | 19% | 1017.3 hPa | - | - | - | - |
| 1777904391 | 28.89° C | 20% | 1017.5 hPa | - | - | - | - |
| 1777903491 | 28.33° C | 18% | 1017.7 hPa | - | - | - | - |
| 1777902590 | 27.78° C | 20% | 1018 hPa | - | - | - | - |
| 1777901690 | 26.67° C | 20% | 1018 hPa | - | - | - | - |
| 1777900791 | 26.67° C | 21% | 1018.3 hPa | - | - | - | - |
| 1777899891 | 25.56° C | 20% | 1018.3 hPa | - | - | - | - |
| 1777898090 | 26.11° C | 20% | 1018.6 hPa | - | - | - | - |
| 1777896290 | 25.56° C | 21% | 1019 hPa | - | - | - | - |
* Rain since midnight (hover to see other rain measurements)
** Current wind speed in m/s (hover to see current wind gust speed)